Time;durP1;ratioP1;P1;durP2;ratioP2;P2;SDS_P1;SDS_P2;PMS_P1;PMS_P2;Temp;Humidity;BMP_temperature;BMP_pressure;BME280_temperature;BME280_humidity;BME280_pressure;Samples;Min_cycle;Max_cycle;Signal;HPM_P1;HPM_P2
2023/09/25 00:00:51;;;;;;;2.72;1.88;;;10.60;60.60;;;;;;5065256;28;20546;-59
2023/09/25 00:03:17;;;;;;;3.40;1.90;;;10.50;60.70;;;;;;5060490;28;20082;-60
2023/09/25 00:05:44;;;;;;;4.05;1.90;;;10.50;61.50;;;;;;5063973;28;20029;-60
2023/09/25 00:08:10;;;;;;;5.30;2.05;;;10.50;60.80;;;;;;5063296;28;20525;-59
2023/09/25 00:10:36;;;;;;;3.83;1.98;;;10.50;61.00;;;;;;5064892;28;20028;-59
2023/09/25 00:13:01;;;;;;;2.55;1.55;;;10.40;60.90;;;;;;5056347;28;20044;-59
2023/09/25 00:15:27;;;;;;;2.50;1.73;;;10.40;60.80;;;;;;5063209;28;20125;-60
2023/09/25 00:17:53;;;;;;;3.13;1.70;;;10.40;61.00;;;;;;5067685;28;20031;-59
2023/09/25 00:20:24;;;;;;;4.25;2.00;;;10.30;61.00;;;;;;5064318;28;20044;-58
2023/09/25 00:22:51;;;;;;;4.22;1.67;;;10.30;61.20;;;;;;5061601;28;20028;-60
2023/09/25 00:25:22;;;;;;;3.67;1.92;;;10.30;61.20;;;;;;5066099;28;20025;-59
2023/09/25 00:27:48;;;;;;;3.88;2.10;;;10.30;61.20;;;;;;5056984;28;20033;-60
2023/09/25 00:30:14;;;;;;;4.45;2.22;;;10.30;61.20;;;;;;5054523;28;20033;-59
2023/09/25 00:32:40;;;;;;;4.43;2.15;;;10.30;61.30;;;;;;5060747;28;20028;-59
2023/09/25 00:35:07;;;;;;;3.03;2.10;;;10.20;61.30;;;;;;5062523;28;20018;-59
2023/09/25 00:37:34;;;;;;;3.40;2.08;;;10.20;61.30;;;;;;5068085;28;20032;-60
2023/09/25 00:40:00;;;;;;;3.15;1.80;;;10.20;61.50;;;;;;5063988;28;20092;-60
2023/09/25 00:42:26;;;;;;;3.00;2.08;;;10.20;61.50;;;;;;5068654;28;20779;-60
2023/09/25 00:44:52;;;;;;;4.13;2.10;;;10.20;61.50;;;;;;4970879;28;20562;-60
2023/09/25 00:47:18;;;;;;;3.53;2.30;;;10.10;61.60;;;;;;5061214;28;20043;-59
2023/09/25 00:49:46;;;;;;;3.65;1.77;;;10.10;61.70;;;;;;5064034;28;20043;-59
2023/09/25 00:52:12;;;;;;;5.63;1.98;;;10.10;61.80;;;;;;5059919;28;20033;-59
2023/09/25 00:54:38;;;;;;;2.70;2.00;;;10.10;61.80;;;;;;5065730;28;20029;-60
2023/09/25 00:57:05;;;;;;;3.05;1.90;;;10.00;61.70;;;;;;5067980;28;20040;-59
2023/09/25 00:59:32;;;;;;;2.97;2.00;;;10.00;61.70;;;;;;5067119;28;20029;-60
2023/09/25 01:01:58;;;;;;;3.17;1.85;;;10.00;61.70;;;;;;5068766;28;20499;-59
2023/09/25 01:04:24;;;;;;;5.75;1.70;;;10.00;61.90;;;;;;5059304;28;20032;-60
2023/09/25 01:06:50;;;;;;;2.65;1.70;;;10.00;61.90;;;;;;5060002;28;20029;-59
2023/09/25 01:09:16;;;;;;;2.70;1.70;;;10.00;62.00;;;;;;5065838;28;20074;-59
2023/09/25 01:11:42;;;;;;;2.72;1.95;;;9.90;62.00;;;;;;5062295;28;20399;-59
2023/09/25 01:14:09;;;;;;;3.35;1.80;;;9.90;62.00;;;;;;5063167;28;20059;-59
2023/09/25 01:16:36;;;;;;;2.55;1.77;;;9.90;62.10;;;;;;5068312;28;20028;-59
2023/09/25 01:19:05;;;;;;;2.33;1.70;;;9.90;62.00;;;;;;5062338;28;20064;-60
2023/09/25 01:21:33;;;;;;;3.90;1.67;;;9.80;61.90;;;;;;5068023;28;20044;-60
2023/09/25 01:23:58;;;;;;;2.22;1.63;;;9.80;62.00;;;;;;5067316;28;21019;-59
2023/09/25 01:26:24;;;;;;;2.50;1.58;;;9.80;62.10;;;;;;5064206;28;20108;-60
2023/09/25 01:28:50;;;;;;;3.00;1.85;;;9.80;62.20;;;;;;5058732;28;20029;-59
2023/09/25 01:31:15;;;;;;;2.95;2.00;;;9.80;62.30;;;;;;5065767;28;20027;-59
2023/09/25 01:33:41;;;;;;;2.00;1.63;;;9.70;62.20;;;;;;5064192;28;20035;-59
2023/09/25 01:36:09;;;;;;;2.50;1.70;;;9.70;62.30;;;;;;5066522;28;20029;-59
2023/09/25 01:38:34;;;;;;;4.95;1.85;;;9.70;62.40;;;;;;5058707;28;20052;-59
2023/09/25 01:41:01;;;;;;;3.58;1.50;;;9.70;62.40;;;;;;5069674;28;20080;-60
2023/09/25 01:43:26;;;;;;;2.35;1.70;;;9.70;62.40;;;;;;5068410;28;20511;-59
2023/09/25 01:45:52;;;;;;;4.35;1.75;;;9.60;62.40;;;;;;4967687;28;20109;-59
2023/09/25 01:48:18;;;;;;;2.25;1.70;;;9.70;62.50;;;;;;5066565;28;20432;-59
2023/09/25 01:50:43;;;;;;;2.95;1.67;;;9.60;62.40;;;;;;5066256;28;20778;-60
2023/09/25 01:53:09;;;;;;;2.55;1.48;;;9.60;62.40;;;;;;5071473;28;20033;-59
2023/09/25 01:55:36;;;;;;;2.33;1.63;;;9.60;62.50;;;;;;5065713;28;20040;-60
2023/09/25 01:58:06;;;;;;;2.47;1.60;;;9.50;62.60;;;;;;5065633;28;20047;-59
2023/09/25 02:00:32;;;;;;;5.03;1.75;;;9.50;63.00;;;;;;5063928;28;20048;-59
2023/09/25 02:02:58;;;;;;;6.10;1.70;;;9.50;62.80;;;;;;5069432;28;20028;-60
2023/09/25 02:05:24;;;;;;;2.13;1.58;;;9.50;62.70;;;;;;5067452;28;20032;-59
2023/09/25 02:07:50;;;;;;;2.83;1.50;;;9.50;62.70;;;;;;5065651;28;20074;-59
2023/09/25 02:10:15;;;;;;;2.53;1.60;;;9.40;62.80;;;;;;5066183;28;20106;-59
2023/09/25 02:12:41;;;;;;;3.38;1.63;;;9.40;62.80;;;;;;5063852;28;20060;-59
2023/09/25 02:15:08;;;;;;;3.10;1.80;;;9.40;62.80;;;;;;5062961;28;20119;-60
2023/09/25 02:17:34;;;;;;;2.72;1.73;;;9.40;62.90;;;;;;5065183;28;20111;-59
2023/09/25 02:20:16;;;;;;;2.42;1.90;;;9.40;62.90;;;;;;5061108;28;20033;-58
2023/09/25 02:22:43;;;;;;;2.45;1.70;;;9.40;63.00;;;;;;5063371;28;20113;-60
2023/09/25 02:25:09;;;;;;;6.05;1.95;;;9.30;62.90;;;;;;5065130;28;20044;-59
2023/09/25 02:27:35;;;;;;;6.35;2.33;;;9.30;62.80;;;;;;5065842;28;20447;-60
2023/09/25 02:30:01;;;;;;;4.78;2.13;;;9.30;62.90;;;;;;5067540;28;20431;-58
2023/09/25 02:32:27;;;;;;;2.45;1.92;;;9.30;63.20;;;;;;5070495;28;20031;-59
2023/09/25 02:34:52;;;;;;;2.95;1.90;;;9.30;63.20;;;;;;5067421;28;20103;-59
2023/09/25 02:37:18;;;;;;;2.85;1.80;;;9.20;63.30;;;;;;5066497;28;20028;-59
2023/09/25 02:39:44;;;;;;;2.70;1.88;;;9.20;63.30;;;;;;5062571;28;20036;-59
2023/09/25 02:42:09;;;;;;;2.38;2.00;;;9.20;63.40;;;;;;5067130;28;20039;-59
2023/09/25 02:44:38;;;;;;;3.45;2.15;;;9.20;63.50;;;;;;5028538;28;20387;-61
2023/09/25 02:47:04;;;;;;;3.80;1.83;;;9.20;63.70;;;;;;5065277;28;20020;-59
2023/09/25 02:49:29;;;;;;;2.90;1.80;;;9.20;63.60;;;;;;5061151;28;20399;-59
2023/09/25 02:51:55;;;;;;;3.08;2.00;;;9.20;63.80;;;;;;5064908;28;20038;-58
2023/09/25 02:54:21;;;;;;;2.25;1.70;;;9.20;63.80;;;;;;5064582;28;20032;-58
2023/09/25 02:56:46;;;;;;;4.03;1.95;;;9.10;64.50;;;;;;5069100;28;20394;-58
2023/09/25 02:59:12;;;;;;;4.85;1.92;;;9.10;63.70;;;;;;5067176;28;20033;-60
2023/09/25 03:01:37;;;;;;;4.53;1.92;;;9.10;63.80;;;;;;5064497;28;20040;-59
2023/09/25 03:04:03;;;;;;;4.70;2.03;;;9.10;63.80;;;;;;5058945;28;20035;-59
2023/09/25 03:06:29;;;;;;;3.95;2.00;;;9.10;64.00;;;;;;5071214;28;20050;-59
2023/09/25 03:08:54;;;;;;;3.47;2.03;;;9.10;64.00;;;;;;5067943;28;20404;-59
2023/09/25 03:11:20;;;;;;;6.38;2.05;;;9.10;64.00;;;;;;5066987;28;20032;-58
2023/09/25 03:13:46;;;;;;;4.35;1.75;;;9.00;63.90;;;;;;5063258;28;20044;-59
2023/09/25 03:16:15;;;;;;;3.55;1.77;;;9.10;64.00;;;;;;5063880;28;20130;-59
2023/09/25 03:18:41;;;;;;;3.20;1.83;;;9.00;64.10;;;;;;5064769;28;20052;-59
2023/09/25 03:21:12;;;;;;;3.22;2.15;;;9.00;64.00;;;;;;5069991;28;20032;-59
2023/09/25 03:23:39;;;;;;;5.03;2.08;;;9.00;64.20;;;;;;5067208;28;20040;-58
2023/09/25 03:26:15;;;;;;;2.58;1.90;;;9.00;64.00;;;;;;5061835;28;20052;-59
2023/09/25 03:28:41;;;;;;;2.92;2.00;;;9.00;64.50;;;;;;5067378;28;20020;-59
2023/09/25 03:31:07;;;;;;;3.17;1.83;;;9.00;64.00;;;;;;5061770;28;20016;-58
2023/09/25 03:33:32;;;;;;;3.83;1.80;;;8.90;63.90;;;;;;5057400;28;20037;-59
2023/09/25 03:35:58;;;;;;;3.95;1.92;;;8.90;64.10;;;;;;5065719;28;20100;-59
2023/09/25 03:38:24;;;;;;;2.47;1.80;;;8.90;64.10;;;;;;5061131;28;20103;-59
2023/09/25 03:40:49;;;;;;;4.72;1.90;;;8.90;64.20;;;;;;5064177;28;20103;-60
2023/09/25 03:43:15;;;;;;;3.35;1.90;;;8.90;64.30;;;;;;5060574;28;20494;-60
2023/09/25 03:45:40;;;;;;;3.05;1.90;;;8.80;64.40;;;;;;4994651;28;20037;-59
2023/09/25 03:48:06;;;;;;;3.10;1.90;;;8.80;64.40;;;;;;5069749;28;20031;-60
2023/09/25 03:50:32;;;;;;;2.97;1.80;;;8.80;64.40;;;;;;5067931;28;20083;-59
2023/09/25 03:53:00;;;;;;;3.55;1.90;;;8.90;64.60;;;;;;5058817;28;20156;-59
2023/09/25 03:55:26;;;;;;;3.75;2.10;;;8.80;64.60;;;;;;5064740;28;20546;-59
2023/09/25 03:57:52;;;;;;;3.63;1.95;;;8.80;64.70;;;;;;5062334;28;20219;-59
2023/09/25 04:00:19;;;;;;;2.22;1.80;;;8.80;64.70;;;;;;5060226;28;20068;-58
2023/09/25 04:02:46;;;;;;;3.33;1.52;;;8.80;64.80;;;;;;5058665;28;20052;-58
2023/09/25 04:05:14;;;;;;;3.13;1.67;;;8.80;64.70;;;;;;5065125;28;20021;-59
2023/09/25 04:07:40;;;;;;;3.65;1.90;;;8.80;64.60;;;;;;5064438;28;20032;-59
2023/09/25 04:10:07;;;;;;;2.42;1.73;;;8.80;64.70;;;;;;5064492;28;20028;-58
2023/09/25 04:12:35;;;;;;;6.53;1.40;;;8.80;64.70;;;;;;5062983;28;20048;-59
2023/09/25 04:15:01;;;;;;;6.38;1.60;;;8.70;64.80;;;;;;5057932;28;20024;-60
2023/09/25 04:17:27;;;;;;;6.03;1.90;;;8.70;64.80;;;;;;5069389;28;20397;-59
2023/09/25 04:19:53;;;;;;;2.65;1.90;;;8.70;64.80;;;;;;5063753;28;20028;-58
2023/09/25 04:22:20;;;;;;;3.38;2.10;;;8.70;64.90;;;;;;5060867;28;20044;-59
2023/09/25 04:24:46;;;;;;;2.70;2.00;;;8.70;65.00;;;;;;5055059;28;20081;-59
2023/09/25 04:27:12;;;;;;;2.17;1.77;;;8.70;65.00;;;;;;5060520;28;20120;-58
2023/09/25 04:29:38;;;;;;;2.65;1.90;;;8.70;65.00;;;;;;5063092;28;20449;-59
2023/09/25 04:32:04;;;;;;;4.70;2.25;;;8.70;65.00;;;;;;5061695;28;20049;-59
2023/09/25 04:34:30;;;;;;;5.00;1.95;;;8.70;64.90;;;;;;5068388;28;20036;-59
2023/09/25 04:36:58;;;;;;;2.00;1.63;;;8.70;65.00;;;;;;5063259;28;20497;-58
2023/09/25 04:39:24;;;;;;;4.10;1.77;;;8.70;65.00;;;;;;5061580;28;20024;-59
2023/09/25 04:41:50;;;;;;;5.47;1.70;;;8.60;64.80;;;;;;5066187;28;20162;-59
2023/09/25 04:44:16;;;;;;;2.42;1.75;;;8.60;64.80;;;;;;5065162;28;20043;-59
2023/09/25 04:46:41;;;;;;;3.25;1.90;;;8.70;64.90;;;;;;5063038;28;20032;-58
2023/09/25 04:49:08;;;;;;;3.40;1.83;;;8.60;64.90;;;;;;5057145;28;20020;-59
2023/09/25 04:51:34;;;;;;;4.00;1.65;;;8.60;65.10;;;;;;5056868;28;20501;-59
2023/09/25 04:54:00;;;;;;;2.35;1.73;;;8.60;65.30;;;;;;5058855;28;20029;-59
2023/09/25 04:56:29;;;;;;;4.65;1.80;;;8.60;65.20;;;;;;5060786;28;20221;-60
2023/09/25 04:58:55;;;;;;;2.78;1.80;;;8.60;65.10;;;;;;5065814;28;20029;-59
2023/09/25 05:01:21;;;;;;;5.88;2.05;;;8.50;65.00;;;;;;5058519;28;20127;-59
2023/09/25 05:03:47;;;;;;;4.00;2.20;;;8.50;65.00;;;;;;5064011;28;20024;-59
2023/09/25 05:06:12;;;;;;;6.43;2.00;;;8.50;65.10;;;;;;5065313;28;20105;-59
2023/09/25 05:08:39;;;;;;;4.70;2.08;;;8.50;65.10;;;;;;5063465;28;20433;-59
2023/09/25 05:11:08;;;;;;;4.55;1.73;;;8.60;65.20;;;;;;5063562;28;20027;-59
2023/09/25 05:13:34;;;;;;;5.72;2.17;;;8.50;65.20;;;;;;5062911;28;20511;-60
2023/09/25 05:16:03;;;;;;;5.97;2.28;;;8.60;65.30;;;;;;5066697;28;20020;-58
2023/09/25 05:18:32;;;;;;;3.92;2.10;;;8.60;65.50;;;;;;5064964;28;20035;-59
2023/09/25 05:20:58;;;;;;;3.97;2.03;;;8.60;65.40;;;;;;5058360;28;20036;-59
2023/09/25 05:23:24;;;;;;;6.13;1.77;;;8.60;65.40;;;;;;5068783;28;20074;-59
2023/09/25 05:25:50;;;;;;;4.63;2.00;;;8.60;65.40;;;;;;5064251;28;20479;-58
2023/09/25 05:28:16;;;;;;;4.50;1.77;;;8.60;65.40;;;;;;5072085;28;20034;-58
2023/09/25 05:30:41;;;;;;;2.55;1.65;;;8.60;65.50;;;;;;5063991;28;20029;-61
2023/09/25 05:33:08;;;;;;;3.53;1.75;;;8.60;65.70;;;;;;5071490;28;20036;-59
2023/09/25 05:35:33;;;;;;;2.25;1.60;;;8.60;65.80;;;;;;5065047;28;20121;-60
2023/09/25 05:37:59;;;;;;;4.18;1.67;;;8.60;65.90;;;;;;5062239;28;20104;-58
2023/09/25 05:40:25;;;;;;;4.88;2.13;;;8.60;65.90;;;;;;5068373;28;20051;-58
2023/09/25 05:42:51;;;;;;;2.92;1.88;;;8.70;65.90;;;;;;5069741;28;20104;-60
2023/09/25 05:45:20;;;;;;;5.07;2.65;;;8.70;66.00;;;;;;4966295;28;20033;-61
2023/09/25 05:47:46;;;;;;;4.60;1.70;;;8.70;66.20;;;;;;5067087;28;20024;-59
2023/09/25 05:50:12;;;;;;;3.13;1.98;;;8.70;66.20;;;;;;5056987;28;20440;-59
2023/09/25 05:52:38;;;;;;;4.45;1.85;;;8.80;66.30;;;;;;5059643;28;20032;-60
2023/09/25 05:55:10;;;;;;;5.88;2.08;;;8.80;66.40;;;;;;5057274;28;20422;-60
2023/09/25 05:57:35;;;;;;;2.00;1.73;;;8.90;66.60;;;;;;5062051;28;20035;-59
2023/09/25 06:00:11;;;;;;;3.38;1.88;;;9.00;66.70;;;;;;5064600;28;20028;-59
2023/09/25 06:02:41;;;;;;;4.20;2.10;;;9.00;66.70;;;;;;5059211;28;20130;-61
2023/09/25 06:05:08;;;;;;;4.15;1.90;;;9.20;66.80;;;;;;5063816;28;20052;-60
2023/09/25 06:07:35;;;;;;;5.13;2.05;;;9.20;66.90;;;;;;5053521;28;20483;-60
2023/09/25 06:10:04;;;;;;;5.78;2.05;;;9.30;66.90;;;;;;5062322;28;20035;-60
2023/09/25 06:12:29;;;;;;;9.48;2.40;;;9.40;67.60;;;;;;5064243;28;20067;-60
2023/09/25 06:14:55;;;;;;;9.10;3.10;;;9.50;66.80;;;;;;5072493;28;20113;-60
2023/09/25 06:17:21;;;;;;;6.47;2.60;;;9.60;66.90;;;;;;5065145;28;20403;-62
2023/09/25 06:19:46;;;;;;;5.22;2.65;;;9.70;66.80;;;;;;5056330;28;20463;-60
2023/09/25 06:22:12;;;;;;;5.45;3.08;;;9.80;66.80;;;;;;5069702;28;20044;-59
2023/09/25 06:24:38;;;;;;;7.65;2.33;;;9.90;66.80;;;;;;5070273;28;20028;-60
2023/09/25 06:27:04;;;;;;;5.97;2.55;;;10.00;66.80;;;;;;5058826;28;20060;-59
2023/09/25 06:29:31;;;;;;;3.35;2.30;;;10.00;66.70;;;;;;5066965;28;20024;-59
2023/09/25 06:31:57;;;;;;;3.92;2.25;;;10.10;66.50;;;;;;5062274;28;20017;-59
2023/09/25 06:34:22;;;;;;;3.97;2.30;;;10.30;66.60;;;;;;5058913;28;20021;-59
2023/09/25 06:36:48;;;;;;;4.43;2.42;;;10.40;66.60;;;;;;5069097;28;20028;-61
2023/09/25 06:39:14;;;;;;;4.10;2.67;;;10.50;66.60;;;;;;5071315;28;20434;-61
2023/09/25 06:41:41;;;;;;;5.95;2.47;;;10.60;66.60;;;;;;5063034;28;20040;-60
2023/09/25 06:44:07;;;;;;;7.13;2.40;;;10.70;66.70;;;;;;5068784;28;20024;-60
2023/09/25 06:46:34;;;;;;;5.43;2.70;;;10.80;66.70;;;;;;4991777;28;20105;-60
2023/09/25 06:49:00;;;;;;;7.80;2.72;;;10.90;66.80;;;;;;5066637;28;20027;-59
2023/09/25 06:51:27;;;;;;;8.90;3.42;;;11.00;66.70;;;;;;5062023;28;20032;-60
2023/09/25 06:53:53;;;;;;;6.03;2.53;;;11.20;66.80;;;;;;5056096;28;20032;-60
2023/09/25 06:56:18;;;;;;;4.32;2.83;;;11.30;66.90;;;;;;5065451;28;20033;-60
2023/09/25 06:58:44;;;;;;;4.60;2.75;;;11.50;66.70;;;;;;5063901;28;20075;-60
2023/09/25 07:01:10;;;;;;;6.40;3.38;;;11.60;66.50;;;;;;5063622;28;20130;-61
2023/09/25 07:03:36;;;;;;;6.50;2.95;;;11.80;66.60;;;;;;5056673;28;20077;-61
2023/09/25 07:06:02;;;;;;;6.22;3.60;;;11.90;66.50;;;;;;5060003;28;20037;-61
2023/09/25 07:08:28;;;;;;;14.07;4.05;;;12.10;66.50;;;;;;5058580;28;20024;-61
2023/09/25 07:10:55;;;;;;;9.85;4.30;;;12.20;66.10;;;;;;5061983;28;20694;-61
2023/09/25 07:13:21;;;;;;;11.07;4.15;;;12.40;66.00;;;;;;5057490;28;20048;-60
2023/09/25 07:15:47;;;;;;;10.57;4.20;;;12.40;65.70;;;;;;5066670;28;20021;-62
2023/09/25 07:18:13;;;;;;;11.38;3.90;;;12.60;65.70;;;;;;5055604;28;20060;-59
2023/09/25 07:20:39;;;;;;;10.98;4.03;;;12.70;65.70;;;;;;5063414;28;20041;-60
2023/09/25 07:23:06;;;;;;;8.75;3.72;;;12.80;66.60;;;;;;5058806;28;20070;-60
2023/09/25 07:25:31;;;;;;;7.60;3.50;;;12.90;65.90;;;;;;5061058;28;20063;-60
2023/09/25 07:27:57;;;;;;;5.95;3.80;;;13.00;65.70;;;;;;5064682;28;20063;-60
2023/09/25 07:30:23;;;;;;;6.00;3.63;;;13.20;65.40;;;;;;5057844;28;20037;-61
2023/09/25 07:32:49;;;;;;;7.00;3.63;;;13.30;65.40;;;;;;5062977;28;20016;-60
2023/09/25 07:35:18;;;;;;;8.10;3.70;;;13.50;65.60;;;;;;5073125;28;20028;-60
2023/09/25 07:37:44;;;;;;;11.45;3.88;;;13.60;65.60;;;;;;5051014;28;20025;-60
2023/09/25 07:40:11;;;;;;;6.47;3.97;;;13.80;65.70;;;;;;5047713;28;20036;-61
2023/09/25 07:42:38;;;;;;;9.70;4.07;;;14.00;65.70;;;;;;5066834;28;20070;-60
2023/09/25 07:45:09;;;;;;;10.40;4.03;;;14.20;65.50;;;;;;5001689;28;20039;-60
2023/09/25 07:47:38;;;;;;;6.80;3.53;;;14.30;65.20;;;;;;5059681;28;20111;-60
2023/09/25 07:50:10;;;;;;;7.78;3.75;;;14.50;65.20;;;;;;5051518;28;20044;-61
2023/09/25 07:52:39;;;;;;;7.82;4.25;;;14.70;65.00;;;;;;5062279;28;20482;-60
2023/09/25 07:55:11;;;;;;;9.38;4.10;;;14.90;64.60;;;;;;5056051;28;20029;-59
2023/09/25 07:57:42;;;;;;;10.23;3.88;;;15.00;64.40;;;;;;5066771;28;20100;-61
2023/09/25 08:00:21;;;;;;;8.45;3.72;;;15.20;64.30;;;;;;5061590;28;20055;-60
2023/09/25 08:02:47;;;;;;;7.10;3.42;;;15.40;64.10;;;;;;5063517;28;20110;-61
2023/09/25 08:05:18;;;;;;;13.20;4.43;;;15.60;63.90;;;;;;5065659;28;20503;-62
2023/09/25 08:07:45;;;;;;;7.85;3.83;;;15.80;63.70;;;;;;5072619;28;20068;-60
2023/09/25 08:10:11;;;;;;;9.98;4.53;;;15.90;63.50;;;;;;5059497;28;20054;-61
2023/09/25 08:12:36;;;;;;;8.60;3.72;;;16.00;63.10;;;;;;5067127;28;20407;-61
2023/09/25 08:15:02;;;;;;;6.28;3.47;;;16.20;62.90;;;;;;5066863;28;20032;-61
2023/09/25 08:17:28;;;;;;;7.90;3.25;;;16.30;62.70;;;;;;5062875;28;20119;-60
2023/09/25 08:19:54;;;;;;;7.78;3.95;;;16.50;62.60;;;;;;5066035;28;20102;-60
2023/09/25 08:22:20;;;;;;;9.10;3.08;;;16.60;62.50;;;;;;5067801;28;20040;-60
2023/09/25 08:24:47;;;;;;;6.10;2.75;;;16.80;62.50;;;;;;5063311;28;20016;-61
2023/09/25 08:27:13;;;;;;;5.95;3.50;;;16.90;62.20;;;;;;5058190;28;20390;-59
2023/09/25 08:29:38;;;;;;;3.70;2.40;;;17.10;62.10;;;;;;5061012;28;20487;-60
2023/09/25 08:32:04;;;;;;;4.38;2.70;;;17.20;61.60;;;;;;5067000;28;20059;-61
2023/09/25 08:34:30;;;;;;;6.72;2.60;;;17.40;61.40;;;;;;5056090;28;20590;-61
2023/09/25 08:36:56;;;;;;;5.90;2.40;;;17.50;61.10;;;;;;5061995;28;20067;-61
2023/09/25 08:39:21;;;;;;;4.13;2.50;;;17.70;60.70;;;;;;5062597;28;20027;-61
2023/09/25 08:41:47;;;;;;;4.63;2.42;;;17.90;60.50;;;;;;5067063;28;20043;-60
2023/09/25 08:44:16;;;;;;;6.20;2.58;;;18.00;60.20;;;;;;5061749;28;20037;-59
2023/09/25 08:46:44;;;;;;;5.05;2.70;;;18.10;59.70;;;;;;5060774;28;20029;-61
2023/09/25 08:49:10;;;;;;;5.35;2.45;;;18.30;59.30;;;;;;5063750;28;20086;-61
2023/09/25 08:51:38;;;;;;;6.13;2.63;;;18.40;59.00;;;;;;5063552;28;20078;-61
2023/09/25 08:54:05;;;;;;;7.13;2.25;;;18.50;58.60;;;;;;5063677;28;20021;-61
2023/09/25 08:56:32;;;;;;;4.07;2.10;;;18.60;58.50;;;;;;5063637;28;20036;-61
2023/09/25 08:59:00;;;;;;;3.70;2.20;;;18.70;58.10;;;;;;5056443;28;20038;-60
2023/09/25 09:01:28;;;;;;;3.15;2.08;;;18.80;58.00;;;;;;5056192;28;20052;-60
2023/09/25 09:03:53;;;;;;;3.38;2.05;;;18.90;57.70;;;;;;5062260;28;20025;-61
2023/09/25 09:06:19;;;;;;;3.15;2.00;;;18.90;57.40;;;;;;5060110;28;20031;-61
2023/09/25 09:08:47;;;;;;;2.75;1.67;;;19.00;57.30;;;;;;5064498;28;20033;-60
2023/09/25 09:11:13;;;;;;;2.97;1.95;;;19.10;57.80;;;;;;5064141;28;20036;-61
2023/09/25 09:13:43;;;;;;;3.65;2.00;;;19.20;57.10;;;;;;5070829;28;20036;-62
2023/09/25 09:16:17;;;;;;;3.85;1.88;;;19.30;57.00;;;;;;5063041;28;20492;-62
2023/09/25 09:18:43;;;;;;;2.72;1.83;;;19.40;56.40;;;;;;5062037;28;20540;-61
2023/09/25 09:21:26;;;;;;;3.00;1.83;;;19.50;57.20;;;;;;5071464;28;20045;-61
2023/09/25 09:23:57;;;;;;;2.58;1.65;;;19.60;55.40;;;;;;5066499;28;20036;-61
2023/09/25 09:26:23;;;;;;;4.13;2.10;;;19.70;56.10;;;;;;5060093;28;20033;-60
2023/09/25 09:28:50;;;;;;;2.90;1.85;;;19.90;56.10;;;;;;5064161;28;20028;-60
2023/09/25 09:31:18;;;;;;;4.20;1.67;;;19.90;55.80;;;;;;5060645;28;20029;-61
2023/09/25 09:33:44;;;;;;;4.50;1.67;;;20.00;55.50;;;;;;5062086;28;20117;-60
2023/09/25 09:36:12;;;;;;;4.20;1.90;;;20.10;55.20;;;;;;5064749;28;20064;-60
2023/09/25 09:38:39;;;;;;;4.03;1.75;;;20.20;54.80;;;;;;5068735;28;20016;-61
2023/09/25 09:41:08;;;;;;;4.47;1.90;;;20.30;54.90;;;;;;5064997;28;20039;-61
2023/09/25 09:43:35;;;;;;;3.92;2.20;;;20.40;54.80;;;;;;5065572;28;20024;-62
2023/09/25 09:46:01;;;;;;;3.85;2.30;;;20.50;54.50;;;;;;5063756;28;20036;-61
2023/09/25 09:48:30;;;;;;;6.78;2.33;;;20.60;54.40;;;;;;5059409;28;20048;-63
2023/09/25 09:51:02;;;;;;;4.32;2.28;;;20.70;53.90;;;;;;5060208;28;20012;-61
2023/09/25 09:53:28;;;;;;;2.45;1.83;;;20.80;53.70;;;;;;5058798;28;20048;-62
2023/09/25 09:55:55;;;;;;;6.07;2.20;;;20.80;53.60;;;;;;5062922;28;20024;-61
2023/09/25 09:58:23;;;;;;;6.10;2.25;;;20.90;53.30;;;;;;5062493;28;20498;-61
2023/09/25 10:00:50;;;;;;;4.50;2.00;;;20.90;53.30;;;;;;5064412;28;20043;-62
2023/09/25 10:03:16;;;;;;;4.40;2.00;;;21.00;53.00;;;;;;5068064;28;20391;-61
2023/09/25 10:05:47;;;;;;;3.15;2.30;;;21.10;53.00;;;;;;5065073;28;20074;-62
2023/09/25 10:08:15;;;;;;;6.13;2.10;;;21.10;52.00;;;;;;5065292;28;20041;-61
2023/09/25 10:10:45;;;;;;;4.35;1.77;;;21.20;52.70;;;;;;5060403;28;20032;-61
2023/09/25 10:13:21;;;;;;;4.35;1.85;;;21.20;52.40;;;;;;5060210;28;20063;-61
2023/09/25 10:15:55;;;;;;;5.78;1.92;;;21.30;51.40;;;;;;5054843;28;20052;-62
2023/09/25 10:18:21;;;;;;;3.55;1.90;;;21.30;51.90;;;;;;5064922;28;20532;-61
2023/09/25 10:20:48;;;;;;;2.72;1.75;;;21.40;52.00;;;;;;5063065;28;20045;-62
2023/09/25 10:23:23;;;;;;;2.03;1.80;;;21.50;52.00;;;;;;5057370;28;20090;-62
2023/09/25 10:25:55;;;;;;;5.55;2.10;;;21.50;51.30;;;;;;5063758;28;20024;-62
2023/09/25 10:28:26;;;;;;;3.25;1.88;;;21.60;51.30;;;;;;5069504;28;20028;-63
2023/09/25 10:30:56;;;;;;;3.20;1.80;;;21.70;51.20;;;;;;5060586;28;20096;-63
2023/09/25 10:33:22;;;;;;;5.05;1.98;;;21.70;50.70;;;;;;5061407;28;20542;-61
2023/09/25 10:35:50;;;;;;;1.63;1.30;;;21.80;50.80;;;;;;5061324;28;20073;-62
2023/09/25 10:38:19;;;;;;;2.78;1.52;;;21.80;50.70;;;;;;5066920;28;20036;-61
2023/09/25 10:40:46;;;;;;;2.72;1.48;;;21.90;50.70;;;;;;5058444;28;20040;-62
2023/09/25 10:43:14;;;;;;;2.58;1.77;;;22.00;50.70;;;;;;5065939;28;20032;-62
2023/09/25 10:45:40;;;;;;;3.38;1.60;;;22.10;50.20;;;;;;5054418;28;20480;-63
2023/09/25 10:48:07;;;;;;;3.17;1.92;;;22.10;49.60;;;;;;5058582;28;20029;-63
2023/09/25 10:50:32;;;;;;;2.17;1.30;;;22.20;49.60;;;;;;5064484;28;20029;-63
2023/09/25 10:52:58;;;;;;;2.80;1.75;;;22.20;49.70;;;;;;5069718;28;20024;-62
2023/09/25 10:55:24;;;;;;;3.83;1.70;;;22.30;49.90;;;;;;5067055;28;20044;-63
2023/09/25 10:57:51;;;;;;;2.65;1.60;;;22.30;49.60;;;;;;5061723;28;20544;-62
2023/09/25 11:00:18;;;;;;;2.95;1.67;;;22.40;50.00;;;;;;5057504;28;20033;-62
2023/09/25 11:02:44;;;;;;;4.57;1.67;;;22.40;49.10;;;;;;5069208;28;20039;-62
2023/09/25 11:05:11;;;;;;;2.88;1.92;;;22.40;48.80;;;;;;5062243;28;20032;-62
2023/09/25 11:07:37;;;;;;;2.78;1.70;;;22.50;48.90;;;;;;5063940;28;20017;-62
2023/09/25 11:10:09;;;;;;;2.83;1.63;;;22.50;49.40;;;;;;5068555;28;20039;-62
2023/09/25 11:12:36;;;;;;;4.88;1.80;;;22.60;49.60;;;;;;5056770;28;20135;-62
2023/09/25 11:15:08;;;;;;;4.72;1.90;;;22.70;49.10;;;;;;5063228;28;20483;-63
2023/09/25 11:17:34;;;;;;;3.30;1.80;;;22.80;48.80;;;;;;5068483;28;20029;-62
2023/09/25 11:20:07;;;;;;;1.70;1.60;;;22.80;49.00;;;;;;5064597;28;20040;-63
2023/09/25 11:22:39;;;;;;;3.35;2.10;;;22.90;49.20;;;;;;5053606;28;20064;-63
2023/09/25 11:25:10;;;;;;;2.75;1.98;;;22.90;48.40;;;;;;5066908;28;20024;-62
2023/09/25 11:27:37;;;;;;;3.10;1.30;;;23.00;48.80;;;;;;5067433;28;20098;-63
2023/09/25 11:30:11;;;;;;;2.42;1.60;;;23.10;48.60;;;;;;5067489;28;20418;-64
2023/09/25 11:32:39;;;;;;;1.80;1.60;;;23.20;48.70;;;;;;5064303;28;20028;-63
2023/09/25 11:35:08;;;;;;;1.58;1.35;;;23.30;47.80;;;;;;5069734;28;20364;-63
2023/09/25 11:37:35;;;;;;;2.85;1.80;;;23.40;48.10;;;;;;5065419;28;20086;-64
2023/09/25 11:40:02;;;;;;;3.22;1.67;;;23.40;47.80;;;;;;5066117;28;20032;-62
2023/09/25 11:42:27;;;;;;;2.50;1.50;;;23.40;47.40;;;;;;5066998;28;20050;-62
2023/09/25 11:44:53;;;;;;;6.25;2.10;;;23.40;47.10;;;;;;4970186;28;20819;-62
2023/09/25 11:47:19;;;;;;;2.55;1.85;;;23.50;47.50;;;;;;5061564;28;20029;-62
2023/09/25 11:49:44;;;;;;;3.15;2.00;;;23.50;46.70;;;;;;5058401;28;20043;-63
2023/09/25 11:52:10;;;;;;;2.97;1.70;;;23.60;46.90;;;;;;5054738;28;20534;-61
2023/09/25 11:54:36;;;;;;;4.20;2.15;;;23.60;47.10;;;;;;5052617;28;20028;-62
2023/09/25 11:57:02;;;;;;;3.75;1.95;;;23.60;47.00;;;;;;5054098;28;21299;-62
2023/09/25 11:59:27;;;;;;;2.83;1.90;;;23.70;47.00;;;;;;5058904;28;20033;-62
2023/09/25 12:01:53;;;;;;;2.75;1.92;;;23.80;47.10;;;;;;5062442;28;20089;-62
2023/09/25 12:04:19;;;;;;;8.98;1.85;;;23.80;47.20;;;;;;5057714;28;20502;-62
2023/09/25 12:06:47;;;;;;;2.75;2.10;;;23.90;46.70;;;;;;5061872;28;20060;-64
2023/09/25 12:09:12;;;;;;;4.53;1.92;;;24.00;46.60;;;;;;5066177;28;20498;-61
2023/09/25 12:11:39;;;;;;;4.03;2.22;;;24.00;46.90;;;;;;5053813;28;20113;-62
2023/09/25 12:14:05;;;;;;;3.53;2.08;;;24.10;46.90;;;;;;5063000;28;20043;-62
2023/09/25 12:16:33;;;;;;;3.35;1.95;;;24.10;46.80;;;;;;5066447;28;20530;-61
2023/09/25 12:18:59;;;;;;;2.33;1.90;;;24.20;47.00;;;;;;5063951;28;20456;-62
2023/09/25 12:21:24;;;;;;;3.85;2.13;;;24.20;46.30;;;;;;5059145;28;20111;-61
2023/09/25 12:23:50;;;;;;;4.18;1.65;;;24.30;45.60;;;;;;5057646;28;20044;-62
2023/09/25 12:26:16;;;;;;;4.60;2.22;;;24.40;46.40;;;;;;5061670;28;20044;-63
2023/09/25 12:28:42;;;;;;;2.75;1.65;;;24.40;46.10;;;;;;5061459;28;20029;-63
2023/09/25 12:31:07;;;;;;;2.10;1.73;;;24.50;46.40;;;;;;5062437;28;20024;-64
2023/09/25 12:33:33;;;;;;;3.53;1.77;;;24.50;46.40;;;;;;5063660;28;20043;-63
2023/09/25 12:35:59;;;;;;;3.92;2.00;;;24.60;46.50;;;;;;5065646;28;20592;-62
2023/09/25 12:38:25;;;;;;;2.17;1.80;;;24.70;45.60;;;;;;5063021;28;20036;-63
2023/09/25 12:40:51;;;;;;;5.38;2.10;;;24.80;46.20;;;;;;5061093;28;20298;-63
2023/09/25 12:43:17;;;;;;;2.05;1.85;;;24.80;45.80;;;;;;5057098;28;20056;-62
2023/09/25 12:45:43;;;;;;;4.85;2.20;;;24.90;46.40;;;;;;4946396;28;20051;-63
2023/09/25 12:48:09;;;;;;;3.67;1.85;;;25.00;46.10;;;;;;5063056;28;20017;-62